createdAt,value
2018-06-12T11:58:40.827Z,3.12
2018-06-12T12:01:08.250Z,3.43
2018-06-12T12:06:02.105Z,3.10
2018-06-12T12:08:29.409Z,3.30
2018-06-12T12:10:56.668Z,3.22
2018-06-12T12:13:23.963Z,2.85
2018-06-12T12:15:51.286Z,3.35
2018-06-12T12:18:18.575Z,3.70
2018-06-12T12:20:45.872Z,2.87
2018-06-12T12:23:13.152Z,2.77
2018-06-12T12:25:40.416Z,2.92
2018-06-12T12:28:07.686Z,2.70
2018-06-12T12:30:34.999Z,2.58
2018-06-12T12:33:02.340Z,2.55
2018-06-12T12:35:29.623Z,2.83
2018-06-12T12:37:56.895Z,2.60
2018-06-12T12:40:24.219Z,2.40
2018-06-12T12:42:51.666Z,2.02
2018-06-12T12:45:18.984Z,2.10
2018-06-12T12:47:46.249Z,1.80
2018-06-12T12:50:14.195Z,2.35
2018-06-12T12:52:41.497Z,2.30
2018-06-12T12:55:08.763Z,2.15
2018-06-12T12:57:36.093Z,1.95
2018-06-12T13:00:03.389Z,2.00
2018-06-12T13:02:30.704Z,2.83
2018-06-12T13:04:57.961Z,2.33
2018-06-12T13:07:25.394Z,2.27
2018-06-12T13:09:52.673Z,2.40
2018-06-12T13:12:19.931Z,2.45
2018-06-12T13:14:47.314Z,2.50
2018-06-12T13:17:14.623Z,2.40
2018-06-12T13:19:42.013Z,2.62
2018-06-12T13:22:09.343Z,2.67
2018-06-12T13:24:36.689Z,2.30
2018-06-12T13:27:03.981Z,2.50
2018-06-12T13:29:31.318Z,2.37
2018-06-12T13:31:58.643Z,2.55
2018-06-12T13:34:25.919Z,2.58
2018-06-12T13:36:53.365Z,2.67
2018-06-12T13:39:20.630Z,2.70
2018-06-12T13:41:47.925Z,2.30
2018-06-12T13:44:15.232Z,2.72
2018-06-12T13:46:42.511Z,2.50
2018-06-12T13:49:09.791Z,2.85
2018-06-12T13:51:37.097Z,2.50
2018-06-12T13:54:04.436Z,2.55
2018-06-12T13:56:31.710Z,2.30
2018-06-12T13:58:59.100Z,2.75
2018-06-12T14:01:26.370Z,2.72
2018-06-12T14:03:53.752Z,2.80
2018-06-12T14:06:21.060Z,2.52
2018-06-12T14:08:48.380Z,2.92
2018-06-12T14:11:15.655Z,3.15
2018-06-12T14:13:42.990Z,2.80
2018-06-12T14:16:10.323Z,2.90
2018-06-12T14:18:37.671Z,2.50
2018-06-12T14:21:05.873Z,2.45
2018-06-12T14:23:33.201Z,2.30
2018-06-12T14:26:00.499Z,3.10
2018-06-12T14:28:27.815Z,2.63
2018-06-12T14:30:55.175Z,2.90
2018-06-12T14:33:22.449Z,2.60
2018-06-12T14:35:50.076Z,3.08
2018-06-12T14:38:17.409Z,2.80
2018-06-12T14:40:44.674Z,2.60
2018-06-12T14:43:11.976Z,3.30
2018-06-12T14:45:39.691Z,35.70
2018-06-12T14:48:07.000Z,3.70
2018-06-12T14:50:34.324Z,3.40
2018-06-12T14:53:01.649Z,4.20
2018-06-12T14:55:29.046Z,4.00
2018-06-12T14:57:56.372Z,4.27
2018-06-12T15:00:23.671Z,3.93
2018-06-12T15:02:50.964Z,4.80
2018-06-12T15:05:18.463Z,4.30
2018-06-12T15:07:45.687Z,5.00
2018-06-12T15:10:14.139Z,5.23
2018-06-12T15:12:41.458Z,6.87
2018-06-12T15:15:08.756Z,7.17
2018-06-12T15:17:36.149Z,7.23
2018-06-12T15:20:03.437Z,7.13
2018-06-12T15:22:30.723Z,6.97
2018-06-12T15:24:58.017Z,7.30
2018-06-12T15:27:25.363Z,8.00
2018-06-12T15:29:52.723Z,7.40
2018-06-12T15:32:20.049Z,8.13
2018-06-12T15:34:47.461Z,8.30
2018-06-12T15:37:14.753Z,9.20
2018-06-12T15:39:42.228Z,9.73
2018-06-12T15:42:09.587Z,9.63
2018-06-12T15:44:36.924Z,14.40
2018-06-12T15:47:04.275Z,15.27
2018-06-12T15:49:31.568Z,14.60
2018-06-12T15:51:58.875Z,11.70
2018-06-12T15:54:26.662Z,12.17
2018-06-12T15:56:54.024Z,17.63
2018-06-12T15:59:21.356Z,13.33
2018-06-12T16:01:48.650Z,13.30
2018-06-12T16:04:15.942Z,13.20
2018-06-12T16:06:43.263Z,12.40
2018-06-12T16:09:10.588Z,11.60
2018-06-12T16:11:37.922Z,10.60
2018-06-12T16:14:05.204Z,11.23
2018-06-12T16:16:32.480Z,11.50
2018-06-12T16:18:59.767Z,11.80
2018-06-12T16:21:27.059Z,15.30
2018-06-12T16:23:54.349Z,13.50
2018-06-12T16:26:21.631Z,13.70
2018-06-12T16:28:48.907Z,11.90
2018-06-12T16:31:16.199Z,11.47
2018-06-12T16:33:43.496Z,13.90
2018-06-12T16:36:10.841Z,12.20
2018-06-12T16:38:38.078Z,12.50
2018-06-12T16:41:05.387Z,11.60
2018-06-12T16:43:32.673Z,18.50
2018-06-12T16:45:59.974Z,14.90
2018-06-12T16:48:27.335Z,14.20
2018-06-12T16:50:54.623Z,14.70
2018-06-12T16:53:21.894Z,15.17
2018-06-12T16:55:49.199Z,14.37
2018-06-12T16:58:16.522Z,13.73
2018-06-12T17:00:43.797Z,13.67
2018-06-12T17:03:11.502Z,14.83
2018-06-12T17:05:38.766Z,15.87
2018-06-12T17:08:06.049Z,14.77
2018-06-12T17:10:33.348Z,15.20
2018-06-12T17:13:00.632Z,17.00
2018-06-12T17:15:27.908Z,16.90
2018-06-12T17:17:55.199Z,17.27
2018-06-12T17:20:22.467Z,18.30
2018-06-12T17:22:49.751Z,17.83
2018-06-12T17:25:17.055Z,18.50
2018-06-12T17:27:44.331Z,17.30
2018-06-12T17:30:11.651Z,18.63
2018-06-12T17:32:39.013Z,18.80
2018-06-12T17:35:06.299Z,18.87
2018-06-12T17:37:33.580Z,19.40
2018-06-12T17:41:13.451Z,25.57
2018-06-12T17:43:41.725Z,22.27
2018-06-12T17:46:09.997Z,27.60
2018-06-12T17:48:38.454Z,30.23
2018-06-12T17:51:06.730Z,22.63
2018-06-12T17:53:35.073Z,25.17
2018-06-12T17:56:03.353Z,21.70
2018-06-12T17:58:31.666Z,24.00
2018-06-12T18:01:00.022Z,22.40
2018-06-12T18:03:28.466Z,24.27
2018-06-12T18:05:56.752Z,21.57
2018-06-12T18:08:25.209Z,20.53
2018-06-12T18:10:53.442Z,23.60
2018-06-12T18:13:21.822Z,51.37
2018-06-12T18:15:50.393Z,25.50
2018-06-12T18:18:19.621Z,21.02
2018-06-12T18:20:48.101Z,24.00
2018-06-12T18:23:16.453Z,22.67
2018-06-12T18:25:44.754Z,21.70
2018-06-12T18:28:13.047Z,22.40
2018-06-12T18:30:41.341Z,22.20
2018-06-12T18:33:09.873Z,20.43
2018-06-12T18:35:38.249Z,21.77
2018-06-12T18:38:06.562Z,21.17
2018-06-12T18:40:34.901Z,20.57
2018-06-12T18:43:03.319Z,20.07
2018-06-12T18:45:31.641Z,19.73
2018-06-12T18:48:00.058Z,20.90
2018-06-12T18:50:28.379Z,21.50
2018-06-12T18:52:57.542Z,20.10
2018-06-12T18:55:27.713Z,19.43
2018-06-12T18:57:55.993Z,18.73
2018-06-12T19:00:24.319Z,20.03
2018-06-12T19:02:52.630Z,20.83
2018-06-12T19:05:20.931Z,21.60
2018-06-12T19:07:49.408Z,22.17
2018-06-12T19:10:17.761Z,17.27
2018-06-12T19:12:46.344Z,15.23
2018-06-12T19:15:14.661Z,11.50
2018-06-12T19:17:43.181Z,9.67
2018-06-12T19:20:11.528Z,9.97
2018-06-12T19:22:39.834Z,8.50
2018-06-12T19:25:08.122Z,7.83
2018-06-12T19:27:36.444Z,7.73
2018-06-12T19:30:04.834Z,5.37
2018-06-12T19:32:33.190Z,7.77
2018-06-12T19:35:01.583Z,14.80
2018-06-12T19:37:30.242Z,6.47
2018-06-12T19:39:58.661Z,4.37
2018-06-12T19:42:27.030Z,3.90
2018-06-12T19:44:55.397Z,4.00
2018-06-12T19:47:23.734Z,4.73
2018-06-12T19:49:52.070Z,4.20
2018-06-12T19:52:20.435Z,4.40
2018-06-12T19:54:48.830Z,4.80
2018-06-12T19:57:18.033Z,4.63
2018-06-12T19:59:46.477Z,5.20
2018-06-12T20:02:14.980Z,5.20
2018-06-12T20:04:43.330Z,5.97
2018-06-12T20:07:12.058Z,7.50
2018-06-12T20:09:40.412Z,8.10
2018-06-12T20:12:09.093Z,6.00
2018-06-12T20:14:37.471Z,6.53
2018-06-12T20:17:06.058Z,5.27
2018-06-12T20:19:34.366Z,5.33
2018-06-12T20:22:02.712Z,5.17
2018-06-12T20:24:30.984Z,4.70
2018-06-12T20:26:59.363Z,5.30
2018-06-12T20:29:27.625Z,4.93
2018-06-12T20:31:56.026Z,5.97
2018-06-12T20:34:24.438Z,6.03
2018-06-12T20:36:52.701Z,4.37
2018-06-12T20:39:21.002Z,5.27
2018-06-12T20:41:49.262Z,5.67
2018-06-12T20:44:17.655Z,4.47
2018-06-12T20:46:46.077Z,5.37
2018-06-12T20:49:14.447Z,5.15
2018-06-12T20:51:42.825Z,4.53
2018-06-12T20:54:11.133Z,5.10
2018-06-12T20:56:39.561Z,4.93
2018-06-12T20:59:08.381Z,6.73
2018-06-12T21:01:36.669Z,4.47
2018-06-12T21:04:04.929Z,3.43
2018-06-12T21:06:33.597Z,17.37
2018-06-12T21:09:01.994Z,4.90
2018-06-12T21:11:30.245Z,4.60
2018-06-12T21:13:58.497Z,3.90
2018-06-12T21:16:26.759Z,3.40
2018-06-12T21:18:55.088Z,3.90
2018-06-12T21:21:23.384Z,4.23
2018-06-12T21:23:51.691Z,3.80
2018-06-12T21:26:20.130Z,4.07
2018-06-12T21:28:49.070Z,4.80
2018-06-12T21:31:17.342Z,4.50
2018-06-12T21:33:45.656Z,4.40
2018-06-12T21:36:13.936Z,4.10
2018-06-12T21:38:42.229Z,4.87
2018-06-12T21:41:10.594Z,4.60
2018-06-12T21:43:39.100Z,4.30
2018-06-12T21:46:07.466Z,4.27
2018-06-12T21:48:35.722Z,4.60
2018-06-12T21:51:04.105Z,4.60
2018-06-12T21:53:32.847Z,4.87
2018-06-12T21:56:01.120Z,4.50
2018-06-12T21:58:29.398Z,4.90
2018-06-12T22:00:58.509Z,5.10
